Date,TemperatureHighF,TemperatureAvgF,TemperatureLowF,DewpointHighF,DewpointAvgF,DewpointLowF,HumidityHigh,HumidityAvg,HumidityLow,PressureMaxIn,PressureMinIn,WindSpeedMaxMPH,WindSpeedAvgMPH,GustSpeedMaxMPH,PrecipitationSumIn
2013-1-1,15,7,-3,2,-4,-9,72,62,51,0.00,40.00,9,4,14,0.00
2013-1-2,30,17,4,26,10,-3,82,73,64,0.00,40.00,12,6,17,0.00
2013-1-3,29,18,11,24,10,5,81,70,60,0.00,40.00,14,8,22,0.00
2013-1-4,34,22,11,18,14,6,84,70,47,0.00,40.00,10,6,14,0.00
2013-1-5,38,27,18,29,20,12,88,74,62,0.00,40.00,17,9,26,0.00
2013-1-6,31,20,13,16,11,4,75,67,50,0.00,40.00,19,8,26,0.00
2013-1-7,41,32,21,25,20,13,81,63,48,0.00,40.00,17,8,23,0.00
2013-1-8,44,32,20,30,25,17,88,74,56,0.00,40.00,13,7,21,0.00
2013-1-9,47,36,32,29,27,23,81,70,42,0.00,40.00,12,6,18,0.00
2013-1-10,40,34,29,34,28,23,90,76,50,0.00,40.00,14,7,20,0.13
2013-1-11,51,41,35,42,37,33,90,86,59,0.00,40.00,21,8,27,0.00
2013-1-12,51,23,14,38,11,2,82,60,54,0.00,40.00,23,13,34,0.00
2013-1-13,18,13,9,5,1,-2,63,59,54,0.00,40.00,14,9,21,0.00
2013-1-14,30,18,9,10,6,0,71,59,39,0.00,40.00,11,4,15,0.00
2013-1-15,33,23,13,13,9,4,68,54,37,0.00,40.00,12,6,16,0.00
2013-1-16,47,33,23,30,21,8,81,60,50,0.00,40.00,19,11,27,0.00
2013-1-17,35,24,14,21,13,6,79,63,41,0.00,40.00,15,5,21,0.00
2013-1-18,53,39,24,29,26,16,76,59,39,0.00,40.00,22,10,30,0.00
2013-1-19,51,38,16,30,25,3,74,59,42,0.00,40.00,24,12,37,0.00
2013-1-20,16,11,7,6,2,-1,75,66,54,0.00,40.00,17,9,26,0.55
2013-1-21,7,2,-4,0,-7,-14,74,66,61,0.00,40.00,19,11,27,0.00
2013-1-22,15,8,0,4,-2,-8,69,61,50,0.00,40.00,10,4,14,0.00
2013-1-23,26,16,4,15,5,-7,68,60,53,0.00,40.00,21,12,31,0.00
2013-1-24,19,10,2,4,-4,-10,60,52,44,0.00,40.00,15,11,21,0.00
2013-1-25,35,23,10,20,10,-1,73,56,50,0.00,40.00,20,10,27,0.00
2013-1-26,32,19,6,12,5,-2,72,55,39,0.00,40.00,14,8,19,0.00
2013-1-27,34,32,29,31,26,12,90,78,49,0.00,40.00,16,6,21,1.53
2013-1-28,47,36,32,44,33,29,90,90,90,0.00,40.00,18,6,21,0.76
2013-1-29,51,38,32,48,34,26,90,86,77,0.00,40.00,21,9,26,0.11
2013-1-30,32,23,14,27,15,3,86,71,55,0.00,40.00,27,18,37,1.55
2013-1-31,14,4,-1,3,-9,-14,61,53,51,0.00,40.00,23,16,34,0.00